createdAt,value
2019-04-14T00:00:27.232Z,27.25
2019-04-14T00:03:14.913Z,24.15
2019-04-14T00:05:45.319Z,27.23
2019-04-14T00:08:13.760Z,27.87
2019-04-14T00:10:42.247Z,27.07
2019-04-14T00:13:11.039Z,29.97
2019-04-14T00:15:44.836Z,28.53
2019-04-14T00:18:09.826Z,28.73
2019-04-14T00:20:38.302Z,26.27
2019-04-14T00:23:06.808Z,28.40
2019-04-14T00:25:35.409Z,31.80
2019-04-14T00:28:05.119Z,29.00
2019-04-14T00:30:33.845Z,27.02
2019-04-14T00:33:10.673Z,29.77
2019-04-14T00:35:44.831Z,30.17
2019-04-14T00:38:15.272Z,28.77
2019-04-14T00:40:58.310Z,30.00
2019-04-14T00:43:35.303Z,28.37
2019-04-14T00:46:05.882Z,34.20
2019-04-14T00:51:03.075Z,38.80
2019-04-14T00:53:31.717Z,30.33
2019-04-14T00:56:00.340Z,35.00
2019-04-14T00:58:29.892Z,32.13
2019-04-14T01:00:58.826Z,30.08
2019-04-14T01:03:27.280Z,36.03
2019-04-14T01:05:56.867Z,33.67
2019-04-14T01:08:25.469Z,37.33
2019-04-14T01:10:54.086Z,34.60
2019-04-14T01:13:22.734Z,33.77
2019-04-14T01:15:58.824Z,32.63
2019-04-14T01:18:21.398Z,34.10
2019-04-14T01:20:51.144Z,33.87
2019-04-14T01:23:19.897Z,31.80
2019-04-14T01:25:48.351Z,29.80
2019-04-14T01:28:17.890Z,33.90
2019-04-14T01:30:46.453Z,36.90
2019-04-14T01:33:16.152Z,35.60
2019-04-14T01:35:45.217Z,27.85
2019-04-14T01:38:14.679Z,30.57
2019-04-14T01:40:44.455Z,34.50
2019-04-14T01:43:14.488Z,30.60
2019-04-14T01:45:43.177Z,28.77
2019-04-14T01:48:12.661Z,33.53
2019-04-14T01:50:49.570Z,33.73
2019-04-14T01:53:20.746Z,30.63
2019-04-14T01:55:54.810Z,29.43
2019-04-14T01:58:27.837Z,27.07
2019-04-14T02:01:04.178Z,28.80
2019-04-14T02:03:32.657Z,28.53
2019-04-14T02:06:01.119Z,30.80
2019-04-14T02:08:30.798Z,30.33
2019-04-14T02:10:59.403Z,27.65
2019-04-14T02:13:28.957Z,30.50
2019-04-14T02:15:57.533Z,29.80
2019-04-14T02:18:27.166Z,30.57
2019-04-14T02:20:55.842Z,26.23
2019-04-14T02:23:25.676Z,33.20
2019-04-14T02:25:55.644Z,29.80
2019-04-14T02:28:24.344Z,31.15
2019-04-14T02:31:08.101Z,27.50
2019-04-14T02:33:50.621Z,29.27
2019-04-14T02:38:57.207Z,25.32
2019-04-14T02:43:51.050Z,25.68
2019-04-14T02:46:20.485Z,30.00
2019-04-14T02:51:19.382Z,27.50
2019-04-14T02:53:59.426Z,27.35
2019-04-14T02:56:21.806Z,31.97
2019-04-14T02:58:52.025Z,31.90
2019-04-14T03:01:24.206Z,30.90
2019-04-14T03:06:17.850Z,26.60
2019-04-14T03:09:01.185Z,26.23
2019-04-14T03:11:28.501Z,31.17
2019-04-14T03:13:52.215Z,28.25
2019-04-14T03:16:30.037Z,27.25
2019-04-14T03:21:42.132Z,25.63
2019-04-14T03:24:18.514Z,28.12
2019-04-14T03:26:56.208Z,26.73
2019-04-14T03:29:43.150Z,26.00
2019-04-14T03:32:14.973Z,27.13
2019-04-14T03:39:46.585Z,28.15
2019-04-14T03:42:08.636Z,30.83
2019-04-14T03:44:34.818Z,27.87
2019-04-14T03:47:05.258Z,30.45
2019-04-14T03:49:40.674Z,32.38
2019-04-14T03:54:27.358Z,32.50
2019-04-14T03:56:44.685Z,30.20
2019-04-14T03:59:13.169Z,32.87
2019-04-14T04:01:41.769Z,31.47
2019-04-14T04:04:10.281Z,30.43
2019-04-14T04:06:39.844Z,30.77
2019-04-14T04:09:08.712Z,35.20
2019-04-14T04:11:37.238Z,30.57
2019-04-14T04:14:07.331Z,29.83
2019-04-14T04:19:19.737Z,32.63
2019-04-14T04:22:06.329Z,33.33
2019-04-14T04:24:37.012Z,35.90
2019-04-14T04:27:15.798Z,38.50
2019-04-14T04:30:02.375Z,39.33
2019-04-14T04:32:49.404Z,41.40
2019-04-14T04:35:34.753Z,42.80
2019-04-14T04:38:05.166Z,38.30
2019-04-14T04:40:35.303Z,41.93
2019-04-14T04:43:04.326Z,40.83
2019-04-14T04:45:32.802Z,37.10
2019-04-14T04:48:02.418Z,39.57
2019-04-14T04:50:30.969Z,37.10
2019-04-14T04:53:00.431Z,33.37
2019-04-14T04:55:29.017Z,35.95
2019-04-14T04:57:57.452Z,38.67
2019-04-14T05:00:26.654Z,34.10
2019-04-14T05:02:55.292Z,37.00
2019-04-14T05:06:00.416Z,29.70
2019-04-14T05:08:28.999Z,33.63
2019-04-14T05:10:59.145Z,31.73
2019-04-14T05:13:29.116Z,34.63
2019-04-14T05:15:57.695Z,31.15
2019-04-14T05:18:26.801Z,29.73
2019-04-14T05:20:55.523Z,31.00
2019-04-14T05:23:25.532Z,31.87
2019-04-14T05:25:54.272Z,30.17
2019-04-14T05:28:22.800Z,31.90
2019-04-14T05:30:52.431Z,32.70
2019-04-14T05:33:21.141Z,28.90
2019-04-14T05:35:50.845Z,27.17
2019-04-14T05:38:19.549Z,27.32
2019-04-14T05:40:47.999Z,25.80
2019-04-14T05:43:28.198Z,29.60
2019-04-14T05:45:47.910Z,24.45
2019-04-14T05:48:16.570Z,23.85
2019-04-14T05:50:45.078Z,26.20
2019-04-14T05:53:13.601Z,24.37
2019-04-14T05:55:42.068Z,23.17
2019-04-14T05:58:10.509Z,28.77
2019-04-14T06:00:40.120Z,25.03
2019-04-14T06:03:08.661Z,23.38
2019-04-14T06:05:38.201Z,24.50
2019-04-14T06:08:06.948Z,28.73
2019-04-14T06:10:35.400Z,24.80
2019-04-14T06:13:03.881Z,25.53
2019-04-14T06:15:32.329Z,21.13
2019-04-14T06:18:00.850Z,25.43
2019-04-14T06:20:29.302Z,22.57
2019-04-14T06:22:57.746Z,24.67
2019-04-14T06:25:26.235Z,28.70
2019-04-14T06:27:54.705Z,29.27
2019-04-14T06:30:27.575Z,24.47
2019-04-14T06:32:57.725Z,23.03
2019-04-14T06:35:33.632Z,25.65
2019-04-14T06:38:07.886Z,23.87
2019-04-14T06:40:37.982Z,28.20
2019-04-14T06:43:06.441Z,25.32
2019-04-14T06:45:34.916Z,24.67
2019-04-14T06:48:03.357Z,25.47
2019-04-14T06:50:31.879Z,30.80
2019-04-14T06:53:00.420Z,26.83
2019-04-14T06:55:28.937Z,27.23
2019-04-14T06:57:57.459Z,27.63
2019-04-14T07:00:25.922Z,27.73
2019-04-14T07:02:54.366Z,27.93
2019-04-14T07:05:22.883Z,35.40
2019-04-14T07:07:56.830Z,30.20
2019-04-14T07:10:21.510Z,26.37
2019-04-14T07:12:50.003Z,30.40
2019-04-14T07:15:18.450Z,25.67
2019-04-14T07:17:46.902Z,30.67
2019-04-14T07:20:15.394Z,26.87
2019-04-14T07:22:43.918Z,27.30
2019-04-14T07:25:12.427Z,30.10
2019-04-14T07:27:40.887Z,31.43
2019-04-14T07:30:11.209Z,32.87
2019-04-14T07:35:28.777Z,29.40
2019-04-14T07:38:04.660Z,26.17
2019-04-14T07:40:45.078Z,30.33
2019-04-14T07:45:59.643Z,28.70
2019-04-14T07:48:38.881Z,30.37
2019-04-14T07:51:14.837Z,30.13
2019-04-14T07:53:44.968Z,30.80
2019-04-14T07:56:15.062Z,30.60
2019-04-14T07:58:51.135Z,28.20
2019-04-14T08:01:21.239Z,29.63
2019-04-14T08:04:00.310Z,28.90
2019-04-14T08:06:28.769Z,30.23
2019-04-14T08:08:57.235Z,30.17
2019-04-14T08:11:25.799Z,35.00
2019-04-14T08:13:54.255Z,40.17
2019-04-14T08:16:22.819Z,35.73
2019-04-14T08:18:51.322Z,33.57
2019-04-14T08:21:19.779Z,37.33
2019-04-14T08:23:48.234Z,36.63
2019-04-14T08:26:16.734Z,31.60
2019-04-14T08:28:45.187Z,29.70
2019-04-14T08:31:13.643Z,34.13
2019-04-14T08:33:42.155Z,35.03
2019-04-14T08:36:10.598Z,34.97
2019-04-14T08:38:39.054Z,37.73
2019-04-14T08:41:07.591Z,31.60
2019-04-14T08:43:46.511Z,31.00
2019-04-14T08:46:19.619Z,35.70
2019-04-14T08:49:06.323Z,29.00
2019-04-14T08:51:36.757Z,38.27
2019-04-14T08:57:09.841Z,31.53
2019-04-14T08:59:56.379Z,29.37
2019-04-14T09:02:32.489Z,35.70
2019-04-14T09:05:11.478Z,32.80
2019-04-14T09:07:41.574Z,30.43
2019-04-14T09:10:11.981Z,31.07
2019-04-14T09:15:10.064Z,30.87
2019-04-14T09:17:38.600Z,35.37
2019-04-14T09:20:07.178Z,36.07
2019-04-14T09:22:35.625Z,31.93
2019-04-14T09:25:05.322Z,39.10
2019-04-14T09:27:33.833Z,33.90
2019-04-14T09:30:02.295Z,36.47
2019-04-14T09:32:31.195Z,33.70
2019-04-14T09:34:59.691Z,32.03
2019-04-14T09:37:28.133Z,33.57
2019-04-14T09:39:56.886Z,29.10
2019-04-14T09:42:25.406Z,27.63
2019-04-14T09:44:53.875Z,25.97
2019-04-14T09:47:22.398Z,30.73
2019-04-14T09:49:50.852Z,30.07
2019-04-14T09:52:19.304Z,30.10
2019-04-14T09:54:47.781Z,29.97
2019-04-14T09:57:16.293Z,32.43
2019-04-14T09:59:44.746Z,31.93
2019-04-14T10:02:13.257Z,31.30
2019-04-14T10:04:41.834Z,30.93
2019-04-14T10:07:10.294Z,31.13
2019-04-14T10:09:38.853Z,34.73
2019-04-14T10:12:07.389Z,33.70
2019-04-14T10:14:35.874Z,33.77
2019-04-14T10:17:04.362Z,33.00
2019-04-14T10:19:32.815Z,34.40
2019-04-14T10:22:01.341Z,34.93
2019-04-14T10:24:29.877Z,34.63
2019-04-14T10:26:58.336Z,34.40
2019-04-14T10:29:26.861Z,30.07
2019-04-14T10:31:55.307Z,27.23
2019-04-14T10:34:23.762Z,30.60
2019-04-14T10:36:52.241Z,29.37
2019-04-14T10:39:20.688Z,28.40
2019-04-14T10:41:49.199Z,30.07
2019-04-14T10:44:17.733Z,27.27
2019-04-14T10:46:46.240Z,27.07
2019-04-14T10:49:14.776Z,27.83
2019-04-14T10:51:43.227Z,29.57
2019-04-14T10:54:11.669Z,26.17
2019-04-14T10:56:40.235Z,32.93
2019-04-14T10:59:08.672Z,28.67
2019-04-14T11:01:37.208Z,25.27
2019-04-14T11:04:08.006Z,31.10
2019-04-14T11:06:40.341Z,25.25
2019-04-14T11:09:10.463Z,27.83
2019-04-14T11:11:38.930Z,24.47
2019-04-14T11:14:07.410Z,28.17
2019-04-14T11:16:35.859Z,32.87
2019-04-14T11:19:04.511Z,26.40
2019-04-14T11:21:42.320Z,26.20
2019-04-14T11:24:03.166Z,28.38
2019-04-14T11:26:31.645Z,29.37
2019-04-14T11:29:00.176Z,27.20
2019-04-14T11:31:46.842Z,25.93
2019-04-14T11:34:16.935Z,30.50
2019-04-14T11:36:47.030Z,33.18
2019-04-14T11:39:17.195Z,29.98
2019-04-14T11:41:45.725Z,29.10
2019-04-14T11:44:14.233Z,29.27
2019-04-14T11:46:42.753Z,27.67
2019-04-14T11:49:11.215Z,26.30
2019-04-14T11:51:39.729Z,22.70
2019-04-14T11:54:08.573Z,27.13
2019-04-14T11:56:37.046Z,26.33
2019-04-14T11:59:05.517Z,23.00
2019-04-14T12:01:44.611Z,26.82
2019-04-14T12:04:23.704Z,24.80
2019-04-14T12:07:09.094Z,25.85
2019-04-14T12:09:41.887Z,27.07
2019-04-14T12:12:10.501Z,26.15
2019-04-14T12:14:39.021Z,26.10
2019-04-14T12:17:07.599Z,21.97
2019-04-14T12:19:36.049Z,23.02
2019-04-14T12:22:08.432Z,24.50
2019-04-14T12:24:34.702Z,24.63
2019-04-14T12:27:03.266Z,25.17
2019-04-14T12:29:32.568Z,22.35
2019-04-14T12:32:01.818Z,23.18
2019-04-14T12:34:30.381Z,19.70
2019-04-14T12:36:58.838Z,20.43
2019-04-14T12:39:27.421Z,19.48
2019-04-14T12:42:01.036Z,18.55
2019-04-14T12:44:46.403Z,22.37
2019-04-14T12:47:39.761Z,19.57
2019-04-14T12:50:21.332Z,22.17
2019-04-14T12:52:49.776Z,24.95
2019-04-14T12:55:18.243Z,21.77
2019-04-14T12:57:48.370Z,21.57
2019-04-14T13:00:22.485Z,22.85
2019-04-14T13:02:52.649Z,20.72
2019-04-14T13:05:21.110Z,23.00
2019-04-14T13:07:49.562Z,16.75
2019-04-14T13:10:18.234Z,20.90
2019-04-14T13:12:46.680Z,18.95
2019-04-14T13:15:15.806Z,19.17
2019-04-14T13:17:44.365Z,17.40
2019-04-14T13:20:13.055Z,17.85
2019-04-14T13:22:41.506Z,18.42
2019-04-14T13:25:10.454Z,19.32
2019-04-14T13:27:38.903Z,17.00
2019-04-14T13:30:10.869Z,18.02
2019-04-14T13:32:39.360Z,18.65
2019-04-14T13:35:08.160Z,16.48
2019-04-14T13:37:36.637Z,19.60
2019-04-14T13:40:06.950Z,20.12
2019-04-14T13:42:35.401Z,21.60
2019-04-14T13:45:05.085Z,16.95
2019-04-14T13:47:33.677Z,19.20
2019-04-14T13:50:02.293Z,18.62
2019-04-14T13:52:31.181Z,17.70
2019-04-14T13:54:59.938Z,16.32
2019-04-14T13:57:28.561Z,16.07
2019-04-14T13:59:57.021Z,16.52
2019-04-14T14:02:25.681Z,20.27
2019-04-14T14:04:54.169Z,17.23
2019-04-14T14:07:22.636Z,20.25
2019-04-14T14:09:51.427Z,19.35
2019-04-14T14:12:23.911Z,15.63
2019-04-14T14:15:08.878Z,16.80
2019-04-14T14:17:54.072Z,15.35
2019-04-14T14:20:24.230Z,17.77
2019-04-14T14:22:59.695Z,15.55
2019-04-14T14:25:26.196Z,17.32
2019-04-14T14:27:54.700Z,18.55
2019-04-14T14:30:23.151Z,19.67
2019-04-14T14:32:51.596Z,16.82
2019-04-14T14:35:20.108Z,17.27
2019-04-14T14:37:48.546Z,16.37
2019-04-14T14:40:16.998Z,20.70
2019-04-14T14:42:45.481Z,17.12
2019-04-14T14:45:30.732Z,15.53
2019-04-14T14:48:00.993Z,14.40
2019-04-14T14:50:39.525Z,13.65
2019-04-14T14:53:12.239Z,16.77
2019-04-14T14:55:38.249Z,19.70
2019-04-14T14:58:06.704Z,15.03
2019-04-14T15:00:35.287Z,12.60
2019-04-14T15:03:04.165Z,20.65
2019-04-14T15:05:33.801Z,17.70
2019-04-14T15:08:02.268Z,19.82
2019-04-14T15:10:30.738Z,14.45
2019-04-14T15:12:59.279Z,14.87
2019-04-14T15:15:27.720Z,13.35
2019-04-14T15:17:56.196Z,13.93
2019-04-14T15:20:25.561Z,13.72
2019-04-14T15:22:54.080Z,15.58
2019-04-14T15:25:22.525Z,15.50
2019-04-14T15:27:51.879Z,14.78
2019-04-14T15:30:22.016Z,14.73
2019-04-14T15:32:50.471Z,14.58
2019-04-14T15:35:18.993Z,19.40
2019-04-14T15:37:47.437Z,17.87
2019-04-14T15:40:16.321Z,15.93
2019-04-14T15:42:44.840Z,18.57
2019-04-14T15:45:14.151Z,19.55
2019-04-14T15:47:42.828Z,19.48
2019-04-14T15:50:11.670Z,18.12
2019-04-14T15:52:40.117Z,14.70
2019-04-14T15:55:08.809Z,14.73
2019-04-14T15:57:42.113Z,16.45
2019-04-14T16:00:18.801Z,18.60
2019-04-14T16:03:07.008Z,16.52
2019-04-14T16:05:37.173Z,16.97
2019-04-14T16:08:10.001Z,13.95
2019-04-14T16:10:40.098Z,16.27
2019-04-14T16:13:25.264Z,18.15
2019-04-14T16:16:11.891Z,16.65
2019-04-14T16:18:45.378Z,17.48
2019-04-14T16:21:14.010Z,14.80
2019-04-14T16:23:50.429Z,12.82
2019-04-14T16:26:20.071Z,18.45
2019-04-14T16:28:51.706Z,17.15
2019-04-14T16:31:24.576Z,17.50
2019-04-14T16:34:07.005Z,18.05
2019-04-14T16:36:35.531Z,18.67
2019-04-14T16:39:06.304Z,17.50
2019-04-14T16:41:34.836Z,13.88
2019-04-14T16:44:03.924Z,12.68
2019-04-14T16:46:32.386Z,17.73
2019-04-14T16:49:00.890Z,14.73
2019-04-14T16:51:34.243Z,16.00
2019-04-14T16:54:04.341Z,17.80
2019-04-14T16:56:43.494Z,16.30
2019-04-14T16:59:12.713Z,12.75
2019-04-14T17:01:42.841Z,14.95
2019-04-14T17:04:11.337Z,15.43
2019-04-14T17:06:39.866Z,16.07
2019-04-14T17:09:08.395Z,13.95
2019-04-14T17:11:36.949Z,16.25
2019-04-14T17:14:19.371Z,18.15
2019-04-14T17:16:58.319Z,15.88
2019-04-14T17:19:31.133Z,15.90
2019-04-14T17:22:10.839Z,16.12
2019-04-14T17:24:57.507Z,17.87
2019-04-14T17:27:28.591Z,16.65
2019-04-14T17:30:26.939Z,17.65
2019-04-14T17:33:06.474Z,15.65
2019-04-14T17:35:48.618Z,15.60
2019-04-14T17:38:35.977Z,17.10
2019-04-14T17:41:06.138Z,14.83
2019-04-14T17:43:36.289Z,18.70
2019-04-14T17:46:22.928Z,19.67
2019-04-14T17:48:56.037Z,22.32
2019-04-14T17:51:32.365Z,19.17
2019-04-14T17:54:14.567Z,13.80
2019-04-14T17:56:50.146Z,19.60
2019-04-14T17:59:29.028Z,13.93
2019-04-14T18:02:01.795Z,14.68
2019-04-14T18:04:31.941Z,14.10
2019-04-14T18:07:08.029Z,13.50
2019-04-14T18:09:38.137Z,15.15
2019-04-14T18:12:08.290Z,17.95
2019-04-14T18:14:54.906Z,15.28
2019-04-14T18:17:31.198Z,14.23
2019-04-14T18:20:07.222Z,15.50
2019-04-14T18:22:36.589Z,19.55
2019-04-14T18:25:07.755Z,14.70
2019-04-14T18:27:37.853Z,20.90
2019-04-14T18:30:08.865Z,17.05
2019-04-14T18:32:56.740Z,15.40
2019-04-14T18:35:26.897Z,21.02
2019-04-14T18:37:56.990Z,18.37
2019-04-14T18:40:33.499Z,22.52
2019-04-14T18:43:20.201Z,20.50
2019-04-14T18:45:50.357Z,24.45
2019-04-14T18:48:29.563Z,18.60
2019-04-14T18:51:08.637Z,19.98
2019-04-14T18:53:47.945Z,15.48
2019-04-14T18:56:36.183Z,13.58
2019-04-14T18:59:06.272Z,17.73
2019-04-14T19:01:39.297Z,15.38
2019-04-14T19:04:07.929Z,14.47
2019-04-14T19:06:36.878Z,15.68
2019-04-14T19:09:07.341Z,13.65
2019-04-14T19:14:06.833Z,13.65
2019-04-14T19:16:39.933Z,11.73
2019-04-14T19:19:08.995Z,14.83
2019-04-14T19:21:37.445Z,14.13
2019-04-14T19:24:05.897Z,11.30
2019-04-14T19:26:34.415Z,15.20
2019-04-14T19:29:02.859Z,12.98
2019-04-14T19:31:31.303Z,12.70
2019-04-14T19:33:59.862Z,12.18
2019-04-14T19:36:28.313Z,13.83
2019-04-14T19:38:56.831Z,12.43
2019-04-14T19:41:25.279Z,14.25
2019-04-14T19:43:53.723Z,12.90
2019-04-14T19:46:22.326Z,9.70
2019-04-14T19:48:50.815Z,13.18
2019-04-14T19:51:19.434Z,9.58
2019-04-14T19:53:47.946Z,12.10
2019-04-14T19:56:16.381Z,11.50
2019-04-14T19:58:44.897Z,10.60
2019-04-14T20:01:13.459Z,8.33
2019-04-14T20:03:41.892Z,11.03
2019-04-14T20:06:10.332Z,13.35
2019-04-14T20:08:38.846Z,14.55
2019-04-14T20:11:07.296Z,10.05
2019-04-14T20:13:55.142Z,10.28
2019-04-14T20:16:41.666Z,13.10
2019-04-14T20:19:11.855Z,12.07
2019-04-14T20:21:44.994Z,13.78
2019-04-14T20:24:20.413Z,9.73
2019-04-14T20:26:50.565Z,12.03
2019-04-14T20:29:20.735Z,13.13
2019-04-14T20:31:50.895Z,13.62
2019-04-14T20:34:19.342Z,11.38
2019-04-14T20:36:47.790Z,9.93
2019-04-14T20:39:16.869Z,13.50
2019-04-14T20:41:45.314Z,9.60
2019-04-14T20:44:13.963Z,15.33
2019-04-14T20:46:42.630Z,12.03
2019-04-14T20:49:11.237Z,11.17
2019-04-14T20:51:40.275Z,9.03
2019-04-14T20:54:08.822Z,15.00
2019-04-14T20:56:37.271Z,10.43
2019-04-14T20:59:05.779Z,15.70
2019-04-14T21:01:35.940Z,10.43
2019-04-14T21:04:24.789Z,13.45
2019-04-14T21:07:11.621Z,10.40
2019-04-14T21:09:47.662Z,13.03
2019-04-14T21:12:24.319Z,12.17
2019-04-14T21:14:54.426Z,12.77
2019-04-14T21:17:33.880Z,11.65
2019-04-14T21:20:06.703Z,14.07
2019-04-14T21:22:37.112Z,13.43
2019-04-14T21:28:04.461Z,9.97
2019-04-14T21:30:34.580Z,12.20
2019-04-14T21:33:40.483Z,8.45
2019-04-14T21:36:16.886Z,12.03
2019-04-14T21:38:58.593Z,10.33
2019-04-14T21:41:28.799Z,14.77
2019-04-14T21:43:57.245Z,14.05
2019-04-14T21:46:25.693Z,14.53
2019-04-14T21:48:54.205Z,10.70
2019-04-14T21:51:24.281Z,11.40
2019-04-14T21:53:52.748Z,15.50
2019-04-14T21:56:21.988Z,13.73
2019-04-14T21:58:52.078Z,10.30
2019-04-14T22:01:41.547Z,10.72
2019-04-14T22:04:17.349Z,9.90
2019-04-14T22:06:47.498Z,10.60
2019-04-14T22:09:17.606Z,13.53
2019-04-14T22:11:46.105Z,14.15
2019-04-14T22:14:14.646Z,12.10
2019-04-14T22:16:43.091Z,14.47
2019-04-14T22:19:11.542Z,11.50
2019-04-14T22:21:40.481Z,12.47
2019-04-14T22:24:08.923Z,15.37
2019-04-14T22:26:37.365Z,17.60
2019-04-14T22:29:05.849Z,10.23
2019-04-14T22:31:34.282Z,15.43
2019-04-14T22:34:02.797Z,13.00
2019-04-14T22:36:31.246Z,17.00
2019-04-14T22:38:59.695Z,16.93
2019-04-14T22:41:28.873Z,18.07
2019-04-14T22:43:57.323Z,18.77
2019-04-14T22:46:25.773Z,19.93
2019-04-14T22:48:54.290Z,24.33
2019-04-14T22:51:22.740Z,18.63
2019-04-14T22:53:51.186Z,15.13
2019-04-14T22:56:19.680Z,12.90
2019-04-14T22:58:48.190Z,18.43
2019-04-14T23:01:21.296Z,14.93
2019-04-14T23:04:07.770Z,14.63
2019-04-14T23:06:50.191Z,15.70
2019-04-14T23:09:22.985Z,20.70
2019-04-14T23:11:59.091Z,17.80
2019-04-14T23:14:29.177Z,22.50
2019-04-14T23:17:05.075Z,27.35
2019-04-14T23:19:47.294Z,24.30
2019-04-14T23:22:26.572Z,21.27
2019-04-14T23:24:55.026Z,18.27
2019-04-14T23:27:23.473Z,20.07
2019-04-14T23:29:51.958Z,20.47
2019-04-14T23:32:20.402Z,16.27
2019-04-14T23:34:49.683Z,19.77
2019-04-14T23:37:18.170Z,23.00
2019-04-14T23:39:46.626Z,24.70
2019-04-14T23:42:15.223Z,21.97
2019-04-14T23:44:43.733Z,24.07
2019-04-14T23:47:12.316Z,19.17
2019-04-14T23:49:40.826Z,24.50
2019-04-14T23:52:09.328Z,24.03
2019-04-14T23:54:38.029Z,23.33
2019-04-14T23:57:07.560Z,22.83
2019-04-14T23:59:36.771Z,23.50
